Chippewa Valley Regional Airport Eau Claire US
ICAO: KEAU
IATA: EAU
Category: Medium
Scheduled Services: Yes

Elevation: 913 ft
TransAlt. 18000 ft.

Airport Communications:
MINNEAPOLIS APP/DEP:125.3
ASOS:119.675
GREEN BAY RDO:122.65
CTAF/UNICOM:123

KEAU Zoom In..

Runways:

(A) RW 04 length 8101 ft width 150 ft
---- / hdg 44

(B) RW 14 length 5000 ft width 100 ft
---- / hdg 138

(C) RW 22 length 8101 ft width 150 ft
ILS 109.50 / hdg 224

(D) RW 32 length 5000 ft width 100 ft
---- / hdg 318

Location; KEAU
Day. 21 / Time. 05.56 Zulu
* Altimeter: 29.88
* Temperature: 19° c. 66.2°f.
* Wind from: 360° Speed 09 kn.
Dewpoint: 16° c.
Visibility: 10 Statute Miles.
Clouds: Overcast 4500 ft.

KEAU 210556Z AUTO 36009KT 10SM OVC045 19/16 A2988 RMK AO2 SLP113 T01890161 10233 20189 402610178 51005


Wind From 360°
Speed 09 kn.

 
 
jpsmedia.com for Web Design worldairports.se 2018   terms of use